Time;durP1;ratioP1;P1;durP2;ratioP2;P2;SDS_P1;SDS_P2;PMS_P1;PMS_P2;Temp;Humidity;BMP_temperature;BMP_pressure;BME280_temperature;BME280_humidity;BME280_pressure;Samples;Min_cycle;Max_cycle;Signal;HPM_P1;HPM_P2
2023/10/29 00:00:00;;;;;;;6.10;3.67;;;;;;;14.83;58.22;94786.97;5095746;28;20197;-70
2023/10/29 00:02:27;;;;;;;5.38;3.55;;;;;;;14.88;59.56;94789.38;5095103;28;20240;-70
2023/10/29 00:04:55;;;;;;;7.47;3.95;;;;;;;14.77;60.07;94788.50;5096363;28;20195;-70
2023/10/29 00:07:22;;;;;;;7.38;4.18;;;;;;;14.72;59.89;94794.44;5096630;28;20176;-70
2023/10/29 00:09:49;;;;;;;7.28;3.80;;;;;;;14.64;60.00;94799.94;5095385;28;20204;-70
2023/10/29 00:12:15;;;;;;;7.13;3.75;;;;;;;14.56;59.64;94789.97;5096189;28;20274;-70
2023/10/29 00:14:42;;;;;;;7.88;3.42;;;;;;;14.53;59.46;94792.72;5096162;28;20185;-70
2023/10/29 00:17:09;;;;;;;6.07;3.20;;;;;;;14.46;59.71;94801.75;5096019;28;20515;-71
2023/10/29 00:19:36;;;;;;;5.80;3.05;;;;;;;14.49;60.44;94802.94;5095984;28;20197;-71
2023/10/29 00:22:05;;;;;;;6.93;3.53;;;;;;;14.50;60.16;94796.25;5095148;28;20192;-71
2023/10/29 00:24:32;;;;;;;5.63;3.83;;;;;;;14.49;60.30;94795.44;5095905;28;20510;-71
2023/10/29 00:26:59;;;;;;;7.05;4.35;;;;;;;14.45;60.28;94800.13;5096248;28;20189;-71
2023/10/29 00:29:25;;;;;;;6.55;3.90;;;;;;;14.48;60.26;94804.91;5095913;28;20196;-71
2023/10/29 00:31:52;;;;;;;4.97;3.50;;;;;;;14.48;60.30;94810.47;5095609;28;20241;-71
2023/10/29 00:34:20;;;;;;;5.70;3.25;;;;;;;14.43;60.76;94808.06;5095313;28;20200;-70
2023/10/29 00:36:47;;;;;;;4.53;3.30;;;;;;;14.36;60.27;94813.53;5095759;28;20521;-70
2023/10/29 00:39:15;;;;;;;3.20;2.30;;;;;;;14.32;59.64;94807.97;5095800;28;20181;-70
2023/10/29 00:41:42;;;;;;;4.82;2.58;;;;;;;14.34;58.74;94807.56;5096301;28;20185;-70
2023/10/29 00:44:09;;;;;;;2.55;2.00;;;;;;;14.37;57.93;94812.34;5095147;28;20200;-72
2023/10/29 00:46:39;;;;;;;4.90;2.08;;;;;;;14.37;57.61;94817.91;5095390;28;20196;-71
2023/10/29 00:49:08;;;;;;;3.95;2.00;;;;;;;14.34;57.69;94816.72;5095589;28;20218;-71
2023/10/29 00:51:35;;;;;;;1.90;1.70;;;;;;;14.36;56.97;94819.09;5095355;28;20627;-71
2023/10/29 00:54:02;;;;;;;2.85;1.50;;;;;;;14.40;56.58;94815.16;5094627;28;20204;-70
2023/10/29 00:56:30;;;;;;;3.00;1.70;;;;;;;14.38;56.64;94812.00;5095836;28;20181;-72
2023/10/29 00:58:57;;;;;;;2.00;1.50;;;;;;;14.39;57.10;94815.56;5095485;28;20234;-72
2023/10/29 01:01:25;;;;;;;4.03;2.20;;;;;;;14.37;58.19;94809.59;5095047;28;20247;-70
2023/10/29 01:03:53;;;;;;;2.40;1.80;;;;;;;14.21;58.93;94818.19;5096210;28;20196;-70
2023/10/29 01:06:19;;;;;;;3.15;2.20;;;;;;;14.01;59.10;94825.88;5095243;28;20519;-70
2023/10/29 01:08:46;;;;;;;2.95;1.98;;;;;;;13.81;59.23;94827.28;5094857;28;20224;-70
2023/10/29 01:11:13;;;;;;;3.08;1.80;;;;;;;13.71;59.92;94837.84;5095951;28;20181;-70
2023/10/29 01:13:41;;;;;;;4.25;2.28;;;;;;;13.71;59.97;94826.78;5094707;28;20246;-70
2023/10/29 01:16:08;;;;;;;3.70;2.00;;;;;;;13.68;60.17;94830.28;5094172;28;20184;-71
2023/10/29 01:18:36;;;;;;;3.90;2.00;;;;;;;13.61;60.35;94830.22;5094405;28;20204;-70
2023/10/29 01:21:03;;;;;;;2.08;1.88;;;;;;;13.62;60.61;94817.97;5095054;28;20636;-70
2023/10/29 01:23:31;;;;;;;3.08;1.80;;;;;;;13.69;60.53;94820.03;5094734;28;20200;-70
2023/10/29 01:25:59;;;;;;;2.38;2.00;;;;;;;13.74;60.38;94825.22;5094697;28;20196;-70
2023/10/29 01:28:26;;;;;;;2.95;2.20;;;;;;;13.77;60.25;94821.69;5095108;28;20204;-70
2023/10/29 01:30:54;;;;;;;3.65;2.30;;;;;;;13.79;60.13;94819.31;5095259;28;20195;-70
2023/10/29 01:33:21;;;;;;;3.05;2.08;;;;;;;13.76;60.68;94825.63;5095211;28;20180;-70
2023/10/29 01:35:47;;;;;;;3.63;1.90;;;;;;;13.55;60.46;94834.50;5094877;28;20498;-70
2023/10/29 01:38:14;;;;;;;2.90;2.10;;;;;;;13.41;61.10;94835.13;5095083;28;20192;-70
2023/10/29 01:40:41;;;;;;;3.42;2.10;;;;;;;13.46;60.87;94834.78;5095394;28;20199;-70
2023/10/29 01:43:07;;;;;;;2.78;1.85;;;;;;;13.48;61.05;94839.97;5095642;28;20484;-70
2023/10/29 01:45:34;;;;;;;2.70;2.00;;;;;;;13.43;61.19;94843.84;5094079;28;20211;-70
2023/10/29 01:48:04;;;;;;;2.65;1.92;;;;;;;13.46;61.41;94845.88;5095023;28;20197;-70
2023/10/29 01:50:31;;;;;;;4.30;2.17;;;;;;;13.52;61.60;94851.88;5095334;28;20185;-70
2023/10/29 01:52:58;;;;;;;3.63;2.03;;;;;;;13.52;61.53;94845.56;5094888;28;20503;-70
2023/10/29 01:55:24;;;;;;;3.17;2.00;;;;;;;13.52;61.53;94848.31;5095266;28;20181;-70
2023/10/29 01:57:51;;;;;;;2.45;1.90;;;;;;;13.52;61.74;94851.09;5094043;28;20192;-70
2023/10/29 02:00:19;;;;;;;3.65;2.05;;;;;;;13.54;61.83;94848.72;5094637;28;20616;-70
2023/10/29 02:02:47;;;;;;;2.45;1.88;;;;;;;13.55;61.83;94853.91;5094806;28;20599;-70
2023/10/29 02:05:15;;;;;;;3.25;2.20;;;;;;;13.55;62.05;94851.13;5095940;28;20250;-70
2023/10/29 02:07:42;;;;;;;3.65;2.22;;;;;;;13.53;61.99;94847.13;5098920;28;20257;-71
2023/10/29 02:10:09;;;;;;;2.90;2.17;;;;;;;13.49;62.42;94852.63;5098906;28;20213;-72
2023/10/29 02:12:36;;;;;;;3.15;2.47;;;;;;;13.48;62.53;94856.59;5097587;28;20196;-72
2023/10/29 02:15:04;;;;;;;5.40;2.55;;;;;;;13.44;62.48;94855.75;5098862;28;20193;-71
2023/10/29 02:17:31;;;;;;;3.70;2.40;;;;;;;13.37;62.49;94853.69;5097568;28;20278;-71
2023/10/29 02:19:58;;;;;;;2.67;2.40;;;;;;;13.28;62.62;94858.69;5098442;28;20177;-71
2023/10/29 02:22:27;;;;;;;4.13;2.90;;;;;;;13.11;63.36;94868.34;5097982;28;20211;-71
2023/10/29 02:24:54;;;;;;;4.18;2.60;;;;;;;13.05;63.40;94872.59;5098050;28;20201;-71
2023/10/29 02:27:21;;;;;;;3.38;2.75;;;;;;;13.06;63.62;94856.78;5098279;28;20207;-71
2023/10/29 02:29:48;;;;;;;4.03;2.63;;;;;;;13.08;63.67;94869.06;5097885;28;20196;-71
2023/10/29 02:32:15;;;;;;;3.22;2.60;;;;;;;13.01;63.59;94861.47;5096930;28;20200;-71
2023/10/29 02:34:42;;;;;;;3.78;2.40;;;;;;;13.02;63.50;94857.50;5098469;28;20184;-72
2023/10/29 02:37:09;;;;;;;4.65;3.55;;;;;;;13.04;63.40;94853.59;5098098;28;20198;-71
2023/10/29 02:39:37;;;;;;;3.00;2.63;;;;;;;13.03;63.16;94863.84;5096807;28;20192;-71
2023/10/29 02:42:04;;;;;;;4.57;2.50;;;;;;;13.04;63.38;94867.44;5098033;28;20507;-71
2023/10/29 02:44:31;;;;;;;3.38;2.22;;;;;;;13.06;63.10;94859.53;5097600;28;20195;-71
2023/10/29 02:46:59;;;;;;;3.75;2.35;;;;;;;13.07;63.02;94861.94;5097014;28;20200;-71
2023/10/29 02:49:26;;;;;;;2.80;2.00;;;;;;;13.11;62.92;94856.44;5097109;28;20598;-71
2023/10/29 02:51:53;;;;;;;2.67;2.30;;;;;;;13.13;63.26;94857.66;5097400;28;20196;-71
2023/10/29 02:54:19;;;;;;;3.83;2.80;;;;;;;13.07;63.72;94863.91;5097696;28;20200;-71
2023/10/29 02:56:48;;;;;;;2.70;2.30;;;;;;;13.04;63.58;94857.16;5097276;28;20184;-70
2023/10/29 02:59:14;;;;;;;3.97;2.42;;;;;;;13.06;63.55;94862.31;5096692;28;20199;-69
2023/10/29 03:01:41;;;;;;;3.50;2.40;;;;;;;12.96;63.78;94864.56;5096775;28;20309;-70
2023/10/29 03:04:08;;;;;;;4.18;3.17;;;;;;;12.75;63.42;94870.56;5096350;28;20620;-70
2023/10/29 03:06:36;;;;;;;3.58;2.35;;;;;;;12.46;63.64;94874.84;5097583;28;20181;-69
2023/10/29 03:09:03;;;;;;;2.55;2.10;;;;;;;12.43;64.05;94883.09;5096907;28;20220;-69
2023/10/29 03:11:30;;;;;;;4.25;2.50;;;;;;;12.42;64.55;94874.00;5096558;28;20197;-69
2023/10/29 03:13:59;;;;;;;3.63;2.25;;;;;;;12.52;64.39;94887.19;5096728;28;20203;-69
2023/10/29 03:16:26;;;;;;;3.10;2.05;;;;;;;12.60;64.35;94876.22;5096121;28;20200;-70
2023/10/29 03:18:52;;;;;;;3.08;2.10;;;;;;;12.65;63.92;94887.78;5097284;28;20241;-70
2023/10/29 03:21:18;;;;;;;1.92;1.80;;;;;;;12.61;64.03;94886.94;5096010;28;20196;-69
2023/10/29 03:23:45;;;;;;;2.97;2.20;;;;;;;12.56;64.59;94884.47;5096570;28;20203;-69
2023/10/29 03:26:12;;;;;;;3.55;2.38;;;;;;;12.57;64.72;94880.56;5096208;28;20204;-69
2023/10/29 03:28:39;;;;;;;2.95;2.20;;;;;;;12.52;64.57;94891.91;5097001;28;20191;-69
2023/10/29 03:31:12;;;;;;;2.75;2.15;;;;;;;12.47;65.28;94890.25;5097315;28;20202;-69
2023/10/29 03:33:39;;;;;;;4.03;2.28;;;;;;;12.55;65.39;94893.16;5096109;28;20204;-69
2023/10/29 03:36:07;;;;;;;3.70;2.88;;;;;;;12.61;65.55;94886.94;5096551;28;20196;-69
2023/10/29 03:38:34;;;;;;;4.40;2.65;;;;;;;12.63;65.28;94903.16;5095741;28;20203;-69
2023/10/29 03:41:01;;;;;;;4.05;2.38;;;;;;;12.55;65.24;94899.47;5097440;28;20185;-70
2023/10/29 03:43:28;;;;;;;3.13;2.75;;;;;;;12.37;65.04;94904.69;5096601;28;20593;-69
2023/10/29 03:45:55;;;;;;;5.20;2.90;;;;;;;12.36;65.37;94903.09;5096783;28;20188;-69
2023/10/29 03:48:23;;;;;;;3.83;3.25;;;;;;;12.35;65.33;94903.50;5096297;28;20211;-69
2023/10/29 03:50:50;;;;;;;3.35;2.90;;;;;;;12.35;65.75;94907.06;5095290;28;20215;-70
2023/10/29 03:53:16;;;;;;;7.28;3.60;;;;;;;12.34;65.67;94908.19;5096508;28;20192;-70
2023/10/29 03:55:43;;;;;;;7.20;3.45;;;;;;;12.31;65.71;94916.44;5096615;28;20180;-70
2023/10/29 03:58:10;;;;;;;5.35;3.60;;;;;;;12.26;65.77;94909.25;5096224;28;20526;-70
2023/10/29 04:00:37;;;;;;;5.20;3.80;;;;;;;12.20;65.88;94913.47;5096020;28;20204;-70
2023/10/29 04:03:03;;;;;;;5.60;4.35;;;;;;;12.16;65.84;94924.47;5096106;28;20199;-70
2023/10/29 04:05:34;;;;;;;5.95;3.92;;;;;;;12.17;66.38;94917.00;5095719;28;20192;-70
2023/10/29 04:08:01;;;;;;;5.00;3.63;;;;;;;12.16;66.13;94924.47;5096715;28;20220;-70
2023/10/29 04:10:28;;;;;;;4.72;3.45;;;;;;;12.17;66.16;94930.81;5095413;28;20216;-70
2023/10/29 04:12:54;;;;;;;5.45;3.95;;;;;;;12.16;66.12;94937.50;5096539;28;20188;-70
2023/10/29 04:15:21;;;;;;;5.28;4.07;;;;;;;12.16;66.05;94943.03;5095562;28;20669;-71
2023/10/29 04:17:49;;;;;;;5.38;3.80;;;;;;;12.17;66.49;94934.38;5095809;28;20247;-70
2023/10/29 04:20:16;;;;;;;5.80;3.50;;;;;;;12.21;66.43;94929.72;5095453;28;20196;-70
2023/10/29 04:22:44;;;;;;;5.50;3.58;;;;;;;12.24;66.27;94926.22;5095348;28;20208;-71
2023/10/29 04:25:11;;;;;;;4.05;3.30;;;;;;;12.24;66.15;94909.63;5095957;28;20195;-71
2023/10/29 04:27:38;;;;;;;3.50;3.08;;;;;;;12.22;66.44;94911.16;5095480;28;20195;-70
2023/10/29 04:30:06;;;;;;;6.10;3.47;;;;;;;12.24;66.37;94917.13;5096225;28;20211;-70
2023/10/29 04:32:33;;;;;;;4.75;3.30;;;;;;;12.25;66.37;94913.97;5095144;28;20203;-70
2023/10/29 04:35:01;;;;;;;5.90;3.40;;;;;;;12.27;66.41;94916.38;5095743;28;20260;-70
2023/10/29 04:37:27;;;;;;;4.10;3.30;;;;;;;12.26;65.97;94912.00;5095621;28;20200;-70
2023/10/29 04:39:56;;;;;;;4.80;3.45;;;;;;;12.22;66.58;94914.72;5094927;28;20196;-70
2023/10/29 04:42:23;;;;;;;4.90;3.40;;;;;;;12.05;66.39;94920.69;5095575;28;20264;-70
2023/10/29 04:44:49;;;;;;;6.88;4.15;;;;;;;12.01;66.59;94925.38;5094812;28;20195;-70
2023/10/29 04:47:18;;;;;;;5.80;3.65;;;;;;;11.89;66.23;94934.63;5096204;28;20185;-71
2023/10/29 04:49:45;;;;;;;4.10;3.67;;;;;;;11.85;66.77;94932.97;5095685;28;20224;-71
2023/10/29 04:52:12;;;;;;;4.57;3.55;;;;;;;11.84;66.71;94926.63;5094757;28;20650;-69
2023/10/29 04:54:38;;;;;;;6.90;4.18;;;;;;;11.82;66.80;94928.91;5094709;28;20200;-70
2023/10/29 04:57:07;;;;;;;6.38;4.38;;;;;;;11.82;67.19;94931.69;5094591;28;20202;-70
2023/10/29 04:59:36;;;;;;;5.22;4.72;;;;;;;11.86;66.94;94937.31;5094815;28;20204;-70
2023/10/29 05:02:03;;;;;;;4.90;4.15;;;;;;;11.88;67.15;94938.56;5095390;28;20289;-70
2023/10/29 05:04:32;;;;;;;6.20;4.00;;;;;;;11.90;67.13;94950.03;5095194;28;20211;-71
2023/10/29 05:06:58;;;;;;;4.80;3.95;;;;;;;11.94;67.59;94947.34;5096013;28;20187;-70
2023/10/29 05:09:25;;;;;;;6.60;5.35;;;;;;;11.95;67.06;94960.81;5095700;28;20239;-70
2023/10/29 05:11:52;;;;;;;8.77;7.07;;;;;;;11.75;66.03;94965.47;5095695;28;20188;-73
2023/10/29 05:14:20;;;;;;;8.35;7.00;;;;;;;11.61;66.82;94972.66;5095505;28;20184;-72
2023/10/29 05:16:46;;;;;;;7.32;6.63;;;;;;;11.60;66.98;94982.13;5094468;28;20189;-72
2023/10/29 05:19:15;;;;;;;7.55;6.80;;;;;;;11.55;67.12;94994.28;5095448;28;20189;-69
2023/10/29 05:21:41;;;;;;;8.00;6.00;;;;;;;11.56;67.32;94991.13;5094738;28;20204;-70
2023/10/29 05:24:09;;;;;;;5.40;4.07;;;;;;;11.61;67.11;94989.25;5095328;28;20180;-70
2023/10/29 05:26:36;;;;;;;6.07;3.70;;;;;;;11.63;67.24;94989.69;5095319;28;20177;-70
2023/10/29 05:29:03;;;;;;;5.30;3.80;;;;;;;11.72;67.07;94982.00;5094280;28;20196;-70
2023/10/29 05:31:31;;;;;;;6.03;3.90;;;;;;;11.79;67.17;94984.91;5094009;28;20230;-70
2023/10/29 05:33:58;;;;;;;6.05;4.13;;;;;;;11.81;66.94;94993.66;5094013;28;20207;-70
2023/10/29 05:36:25;;;;;;;5.82;4.28;;;;;;;11.84;67.16;94998.47;5095154;28;20189;-70
2023/10/29 05:38:52;;;;;;;7.60;5.90;;;;;;;11.79;67.37;94996.75;5096290;28;20180;-70
2023/10/29 05:41:19;;;;;;;5.93;5.25;;;;;;;11.72;67.46;95001.31;5099171;28;20189;-70
2023/10/29 05:43:45;;;;;;;6.93;5.53;;;;;;;11.73;67.13;95012.03;5098781;28;20527;-69
2023/10/29 05:46:13;;;;;;;9.68;5.70;;;;;;;11.75;67.44;95014.44;5098860;28;20191;-70
2023/10/29 05:48:42;;;;;;;6.65;5.28;;;;;;;11.77;67.62;95012.13;5098771;28;20488;-70
2023/10/29 05:51:12;;;;;;;6.00;5.25;;;;;;;11.75;67.85;95012.47;5098962;28;20215;-70
2023/10/29 05:53:39;;;;;;;6.70;4.95;;;;;;;11.77;67.55;95015.66;5098594;28;20598;-71
2023/10/29 05:56:06;;;;;;;6.25;4.90;;;;;;;11.87;67.71;95021.81;5098258;28;20212;-71
2023/10/29 05:58:34;;;;;;;8.27;5.50;;;;;;;11.90;67.93;95019.13;5098325;28;20195;-70
2023/10/29 06:01:01;;;;;;;6.25;5.65;;;;;;;11.88;68.26;95028.97;5099405;28;20224;-70
2023/10/29 06:03:28;;;;;;;8.88;6.20;;;;;;;11.85;68.22;95036.00;5098661;28;20492;-70
2023/10/29 06:05:56;;;;;;;7.38;4.97;;;;;;;11.91;68.42;95042.03;5098787;28;20200;-69
2023/10/29 06:08:23;;;;;;;7.18;5.07;;;;;;;11.94;68.14;95039.34;5098500;28;20196;-70
2023/10/29 06:10:50;;;;;;;8.45;5.20;;;;;;;11.96;67.74;95044.53;5099300;28;20211;-72
2023/10/29 06:13:17;;;;;;;8.55;5.32;;;;;;;12.02;68.05;95035.59;5099014;28;20185;-72
2023/10/29 06:15:44;;;;;;;7.97;5.75;;;;;;;12.16;68.12;95037.03;5098229;28;20211;-71
2023/10/29 06:18:10;;;;;;;8.45;4.75;;;;;;;12.25;68.09;95041.19;5098771;28;20189;-71
2023/10/29 06:20:40;;;;;;;6.38;4.60;;;;;;;12.38;67.47;95039.06;5098507;28;20184;-71
2023/10/29 06:23:08;;;;;;;7.25;4.63;;;;;;;12.51;66.89;95036.94;5098412;28;20217;-71
2023/10/29 06:25:35;;;;;;;7.20;5.18;;;;;;;12.63;66.86;95034.00;5097103;28;20196;-71
2023/10/29 06:28:02;;;;;;;7.57;5.90;;;;;;;12.72;66.26;95036.53;5098292;28;20180;-71
2023/10/29 06:30:29;;;;;;;7.18;4.80;;;;;;;12.83;66.44;95050.59;5098196;28;20208;-71
2023/10/29 06:33:00;;;;;;;6.55;4.95;;;;;;;12.91;66.23;95036.50;5097926;28;20604;-71
2023/10/29 06:35:28;;;;;;;6.63;4.93;;;;;;;13.01;66.37;95055.25;5098078;28;20188;-71
2023/10/29 06:37:54;;;;;;;8.23;6.28;;;;;;;13.14;65.95;95057.84;5098134;28;20185;-71
2023/10/29 06:40:25;;;;;;;7.47;6.78;;;;;;;13.25;65.74;95058.84;5097160;28;20249;-71
2023/10/29 06:42:52;;;;;;;8.43;6.20;;;;;;;13.33;65.20;95055.03;5097380;28;20208;-71
2023/10/29 06:45:19;;;;;;;6.95;6.25;;;;;;;13.44;64.86;95060.75;5097922;28;20500;-71
2023/10/29 06:47:46;;;;;;;8.88;5.82;;;;;;;13.58;64.80;95055.44;5097728;28;20181;-71
2023/10/29 06:50:16;;;;;;;6.43;5.30;;;;;;;13.69;64.76;95061.16;5097788;28;20219;-71
2023/10/29 06:52:42;;;;;;;7.32;6.50;;;;;;;13.81;64.42;95060.13;5096941;28;20291;-72
2023/10/29 06:55:12;;;;;;;8.38;6.47;;;;;;;13.88;63.70;95066.56;5097871;28;20207;-71
2023/10/29 06:57:46;;;;;;;8.50;6.25;;;;;;;13.99;63.53;95077.81;5097881;28;20256;-71
2023/10/29 07:00:18;;;;;;;7.90;6.43;;;;;;;14.08;63.27;95078.31;5097441;28;20234;-71
2023/10/29 07:02:51;;;;;;;10.20;7.03;;;;;;;14.18;62.42;95082.44;5097015;28;20711;-71
2023/10/29 07:05:23;;;;;;;10.52;8.32;;;;;;;14.30;62.55;95092.47;5096929;28;20196;-71
2023/10/29 07:07:51;;;;;;;9.30;7.95;;;;;;;14.41;62.38;95085.09;5097844;28;20188;-71
2023/10/29 07:10:19;;;;;;;11.60;8.45;;;;;;;14.49;61.81;95083.22;5097273;28;20663;-71
2023/10/29 07:12:47;;;;;;;9.23;7.65;;;;;;;14.58;61.63;95084.56;5096675;28;20224;-71
2023/10/29 07:15:18;;;;;;;9.15;7.47;;;;;;;14.72;61.47;95081.16;5097383;28;20189;-71
2023/10/29 07:17:44;;;;;;;10.23;6.75;;;;;;;14.83;61.31;95070.97;5096445;28;20192;-71
2023/10/29 07:20:13;;;;;;;8.82;5.93;;;;;;;14.95;61.03;95069.88;5096630;28;20196;-71
2023/10/29 07:22:43;;;;;;;7.20;6.20;;;;;;;15.06;60.28;95079.13;5096495;28;20192;-71
2023/10/29 07:25:11;;;;;;;6.85;5.93;;;;;;;15.16;59.75;95085.97;5096476;28;20200;-71
2023/10/29 07:27:38;;;;;;;7.28;5.18;;;;;;;15.30;59.71;95093.66;5096795;28;20207;-71
2023/10/29 07:30:09;;;;;;;7.40;5.72;;;;;;;15.40;58.94;95084.63;5097487;28;20219;-71
2023/10/29 07:32:36;;;;;;;7.43;5.47;;;;;;;15.49;58.08;95082.31;5117059;28;20180;-71
2023/10/29 07:35:03;;;;;;;8.07;5.40;;;;;;;15.58;57.85;95082.78;5099541;28;20196;-71
2023/10/29 07:37:30;;;;;;;11.07;5.68;;;;;;;15.69;57.40;95088.47;5117036;28;20591;-72
2023/10/29 07:39:57;;;;;;;9.68;5.18;;;;;;;15.77;56.38;95086.53;5117103;28;20630;-71
2023/10/29 07:42:24;;;;;;;9.85;5.40;;;;;;;15.87;56.68;95086.63;5100242;28;20210;-72
2023/10/29 07:44:51;;;;;;;10.75;5.35;;;;;;;15.98;56.25;95089.47;5118785;28;20184;-77
2023/10/29 07:47:20;;;;;;;13.07;6.05;;;;;;;16.05;55.95;95097.88;5100210;28;20420;-71
2023/10/29 07:49:47;;;;;;;8.32;5.25;;;;;;;16.16;55.51;95088.75;5100800;28;20183;-68
2023/10/29 07:52:14;;;;;;;9.23;5.00;;;;;;;16.24;54.58;95087.66;5117434;28;20204;-68
2023/10/29 07:54:41;;;;;;;5.40;4.90;;;;;;;16.32;54.10;95086.50;5099979;28;20188;-70
2023/10/29 07:57:07;;;;;;;6.28;5.00;;;;;;;16.41;54.27;95083.34;5117010;28;20180;-70
2023/10/29 07:59:34;;;;;;;20.33;6.72;;;;;;;16.55;54.52;95075.84;5116952;28;20180;-71
2023/10/29 08:02:01;;;;;;;8.20;5.45;;;;;;;16.71;53.84;95078.31;5116201;28;20288;-71
2023/10/29 08:04:31;;;;;;;7.53;4.50;;;;;;;16.84;53.68;95071.22;5099385;28;20195;-70
2023/10/29 08:06:57;;;;;;;5.38;4.05;;;;;;;16.98;53.19;95070.47;5099619;28;20195;-70
2023/10/29 08:09:25;;;;;;;7.25;3.90;;;;;;;17.15;53.01;95074.50;5116855;28;20198;-77
2023/10/29 08:11:52;;;;;;;4.05;3.30;;;;;;;17.30;51.93;95078.91;5115917;28;20227;-71
2023/10/29 08:14:19;;;;;;;5.07;3.50;;;;;;;17.43;51.59;95079.31;5099174;28;20204;-71
2023/10/29 08:16:45;;;;;;;6.80;3.30;;;;;;;17.58;51.25;95076.53;5116210;28;20195;-71
2023/10/29 08:19:12;;;;;;;5.55;3.35;;;;;;;17.72;51.00;95082.09;5116346;28;20199;-71
2023/10/29 08:21:40;;;;;;;7.00;3.67;;;;;;;17.88;50.69;95082.53;5116461;28;20192;-71
2023/10/29 08:24:08;;;;;;;6.80;3.78;;;;;;;18.01;50.49;95080.94;5116376;28;20202;-71
2023/10/29 08:26:34;;;;;;;8.60;4.68;;;;;;;18.15;49.72;95080.09;5116510;28;20263;-70
2023/10/29 08:29:01;;;;;;;9.23;4.82;;;;;;;18.18;49.20;95082.09;5098667;28;20203;-71
2023/10/29 08:31:28;;;;;;;6.00;4.53;;;;;;;18.26;49.43;95089.25;5098967;28;20589;-71
2023/10/29 08:33:55;;;;;;;4.68;3.67;;;;;;;18.32;48.97;95086.06;5116327;28;20195;-71
2023/10/29 08:36:24;;;;;;;5.85;3.80;;;;;;;18.29;48.42;95087.66;5098325;28;20211;-71
2023/10/29 08:38:52;;;;;;;6.82;3.67;;;;;;;18.23;49.05;95078.91;5098499;28;20223;-71
2023/10/29 08:41:18;;;;;;;7.88;3.78;;;;;;;18.31;49.34;95090.84;5099058;28;20176;-71
2023/10/29 08:43:45;;;;;;;5.55;3.40;;;;;;;18.49;48.61;95088.00;5097926;28;20611;-71
2023/10/29 08:46:12;;;;;;;6.45;3.40;;;;;;;18.57;48.54;95097.94;5116089;28;20200;-71
2023/10/29 08:48:39;;;;;;;3.83;3.13;;;;;;;18.73;48.53;95097.50;5098665;28;20184;-71
2023/10/29 08:51:06;;;;;;;6.28;3.25;;;;;;;18.92;48.29;95101.84;5115920;28;20204;-71
2023/10/29 08:53:33;;;;;;;5.63;3.08;;;;;;;19.09;47.78;95100.94;5098104;28;20646;-71
2023/10/29 08:56:03;;;;;;;7.18;3.75;;;;;;;19.23;47.20;95095.28;5115694;28;20184;-71
2023/10/29 08:58:30;;;;;;;7.35;2.90;;;;;;;19.35;47.08;95090.41;5115548;28;20591;-71
2023/10/29 09:00:57;;;;;;;5.82;3.55;;;;;;;19.42;45.59;95095.97;5115687;28;20228;-71
2023/10/29 09:03:26;;;;;;;4.65;2.92;;;;;;;19.53;46.30;95093.09;5098775;28;20199;-71
2023/10/29 09:06:01;;;;;;;5.65;2.90;;;;;;;19.64;45.68;95091.84;5115566;28;20210;-71
2023/10/29 09:08:28;;;;;;;5.57;2.90;;;;;;;19.65;45.10;95090.66;5115883;28;20183;-71
2023/10/29 09:10:54;;;;;;;6.05;3.08;;;;;;;19.73;45.25;95085.78;5098427;28;20215;-71
2023/10/29 09:13:23;;;;;;;3.85;2.90;;;;;;;19.90;45.37;95082.06;5115579;28;20188;-71
2023/10/29 09:15:50;;;;;;;4.75;3.17;;;;;;;20.07;44.64;95091.50;5098038;28;20206;-71
2023/10/29 09:18:20;;;;;;;7.20;3.80;;;;;;;20.18;44.74;95080.19;5116039;28;20183;-71
2023/10/29 09:20:49;;;;;;;6.63;4.78;;;;;;;20.31;44.15;95089.66;5097628;28;20196;-71
2023/10/29 09:23:16;;;;;;;6.80;4.40;;;;;;;20.41;43.96;95083.16;5115761;28;20266;-71
2023/10/29 09:25:45;;;;;;;6.10;3.50;;;;;;;20.47;44.01;95085.50;5098448;28;20202;-71
2023/10/29 09:28:12;;;;;;;6.20;3.67;;;;;;;20.62;43.11;95082.16;5098237;28;20195;-71
2023/10/29 09:30:40;;;;;;;4.97;3.38;;;;;;;20.73;43.02;95070.03;5098437;28;20211;-71
2023/10/29 09:33:08;;;;;;;4.55;3.15;;;;;;;20.80;42.16;95083.94;5115846;28;20183;-71
2023/10/29 09:35:37;;;;;;;5.18;3.30;;;;;;;20.70;42.16;95076.47;5116089;28;20286;-71
2023/10/29 09:38:04;;;;;;;6.38;2.92;;;;;;;20.84;42.49;95071.50;5115494;28;20304;-71
2023/10/29 09:40:31;;;;;;;5.88;3.10;;;;;;;21.06;42.10;95062.78;5097464;28;20188;-71
2023/10/29 09:42:59;;;;;;;7.20;2.90;;;;;;;21.27;41.97;95065.31;5097772;28;20191;-71
2023/10/29 09:45:27;;;;;;;5.75;2.63;;;;;;;21.36;42.04;95062.81;5098216;28;20206;-71
2023/10/29 09:47:56;;;;;;;5.30;2.88;;;;;;;21.63;41.29;95057.19;5097410;28;20208;-71
2023/10/29 09:50:23;;;;;;;4.70;2.40;;;;;;;21.65;40.60;95065.19;5098040;28;20207;-71
2023/10/29 09:52:51;;;;;;;6.07;2.90;;;;;;;21.70;40.67;95058.28;5115560;28;20231;-71
2023/10/29 09:55:19;;;;;;;6.95;3.05;;;;;;;21.69;40.33;95057.50;5097391;28;20254;-71
2023/10/29 09:57:46;;;;;;;13.32;4.32;;;;;;;21.68;40.56;95053.13;5115309;28;20180;-71
2023/10/29 10:00:15;;;;;;;4.70;2.90;;;;;;;21.73;40.42;95049.81;5097374;28;20196;-71
2023/10/29 10:02:52;;;;;;;4.25;2.95;;;;;;;21.86;40.68;95045.19;5097545;28;20231;-71
2023/10/29 10:05:21;;;;;;;3.55;2.33;;;;;;;22.10;40.32;95048.78;5097878;28;20202;-71
2023/10/29 10:07:48;;;;;;;4.80;2.60;;;;;;;22.29;40.07;95044.44;5097284;28;20204;-71
2023/10/29 10:10:15;;;;;;;6.63;2.65;;;;;;;22.34;39.10;95045.97;5097282;28;20252;-71
2023/10/29 10:12:46;;;;;;;5.85;2.55;;;;;;;22.11;38.98;95041.13;5097603;28;20207;-71
2023/10/29 10:15:14;;;;;;;28.52;4.63;;;;;;;21.88;39.32;95037.13;5115021;28;20196;-71
2023/10/29 10:17:46;;;;;;;17.77;3.53;;;;;;;22.00;39.46;95038.50;5097019;28;20196;-71
2023/10/29 10:20:16;;;;;;;6.10;2.63;;;;;;;22.30;40.04;95031.22;5097324;28;20660;-71
2023/10/29 10:22:44;;;;;;;3.08;2.72;;;;;;;22.54;38.19;95029.91;5097586;28;20237;-71
2023/10/29 10:25:18;;;;;;;2.75;2.10;;;;;;;22.60;38.73;95024.59;5114821;28;20195;-71
2023/10/29 10:27:49;;;;;;;5.85;2.60;;;;;;;23.49;36.88;95025.50;5100295;28;20248;-71
2023/10/29 10:30:25;;;;;;;4.45;2.53;;;;;;;23.67;35.93;95022.28;5101260;28;20191;-71
2023/10/29 10:32:52;;;;;;;3.75;2.15;;;;;;;23.99;35.47;95024.28;5100692;28;20268;-71
2023/10/29 10:35:20;;;;;;;5.38;2.33;;;;;;;24.34;35.27;95021.00;5100470;28;20195;-71
2023/10/29 10:37:55;;;;;;;5.63;2.08;;;;;;;24.66;34.82;95018.09;5118343;28;20222;-71
2023/10/29 10:40:23;;;;;;;5.05;2.40;;;;;;;24.90;34.32;95012.19;5118315;28;20183;-71
2023/10/29 10:42:54;;;;;;;6.18;2.13;;;;;;;24.56;33.85;95012.78;5100317;28;20256;-71
2023/10/29 10:45:26;;;;;;;2.85;1.80;;;;;;;24.45;33.67;95010.25;5100250;28;20234;-71
2023/10/29 10:47:57;;;;;;;2.85;1.98;;;;;;;24.00;33.92;95011.00;5118627;28;20191;-71
2023/10/29 10:50:25;;;;;;;6.28;2.45;;;;;;;23.50;34.36;95009.41;5100559;28;20199;-71
2023/10/29 10:52:54;;;;;;;2.63;1.70;;;;;;;23.26;35.71;95015.16;5118485;28;20230;-71
2023/10/29 10:55:22;;;;;;;2.30;1.70;;;;;;;23.35;35.71;95010.94;5119179;28;20184;-71
2023/10/29 10:57:50;;;;;;;4.38;2.20;;;;;;;23.38;35.65;95010.88;5119028;28;20184;-71
2023/10/29 11:00:18;;;;;;;4.65;2.20;;;;;;;23.39;35.71;95008.88;5100144;28;20268;-71
2023/10/29 11:02:45;;;;;;;3.88;2.20;;;;;;;23.33;36.51;95007.78;5118038;28;20224;-71
2023/10/29 11:05:14;;;;;;;3.17;2.28;;;;;;;23.50;36.40;95009.41;5118161;28;20180;-71
2023/10/29 11:07:42;;;;;;;3.08;2.03;;;;;;;23.49;35.57;95000.19;5100513;28;20202;-70
2023/10/29 11:10:13;;;;;;;3.13;2.15;;;;;;;23.45;35.79;95004.28;5118542;28;20251;-70
2023/10/29 11:12:40;;;;;;;3.42;2.00;;;;;;;23.26;34.90;94992.66;5100207;28;20558;-70
2023/10/29 11:15:15;;;;;;;2.97;2.03;;;;;;;22.84;34.93;94991.59;5118396;28;20188;-72
2023/10/29 11:17:51;;;;;;;2.65;1.80;;;;;;;22.76;35.62;94988.09;5118352;28;20179;-71
2023/10/29 11:20:51;;;;;;;3.08;1.50;;;;;;;22.82;34.88;94980.75;5118453;28;20192;-71
2023/10/29 11:23:23;;;;;;;2.85;1.70;;;;;;;22.92;34.99;94983.81;5118333;28;20195;-70
2023/10/29 11:25:51;;;;;;;1.77;1.40;;;;;;;22.85;33.06;94984.72;5118222;28;20172;-71
2023/10/29 11:28:42;;;;;;;2.55;1.45;;;;;;;22.70;33.37;94980.63;5101216;28;20588;-71
2023/10/29 11:31:13;;;;;;;2.42;1.50;;;;;;;22.58;33.68;94982.06;5100567;28;20196;-71
2023/10/29 11:33:41;;;;;;;2.20;1.50;;;;;;;22.54;34.03;94979.31;5099903;28;20611;-71
2023/10/29 11:36:32;;;;;;;1.98;1.55;;;;;;;22.63;33.92;94967.53;5100539;28;20187;-71